sensor_id;sensor_type;location;lat;lon;timestamp;temperature;humidity
21417;DHT22;10869;52.238;10.716;2023-04-09T03:03:12;3.60;99.90
21417;DHT22;10869;52.238;10.716;2023-04-09T05:22:52;5.40;99.90
21417;DHT22;10869;52.238;10.716;2023-04-09T05:25:18;5.40;99.90
21417;DHT22;10869;52.238;10.716;2023-04-09T05:27:43;5.50;99.90
21417;DHT22;10869;52.238;10.716;2023-04-09T05:30:09;5.50;99.90
21417;DHT22;10869;52.238;10.716;2023-04-09T05:32:35;5.60;99.90
21417;DHT22;10869;52.238;10.716;2023-04-09T05:35:01;5.70;99.90
21417;DHT22;10869;52.238;10.716;2023-04-09T05:37:27;5.70;99.90
21417;DHT22;10869;52.238;10.716;2023-04-09T05:39:53;5.70;99.90
21417;DHT22;10869;52.238;10.716;2023-04-09T05:42:18;5.70;99.90
21417;DHT22;10869;52.238;10.716;2023-04-09T05:44:44;5.70;99.90
21417;DHT22;10869;52.238;10.716;2023-04-09T05:47:10;5.80;99.90
21417;DHT22;10869;52.238;10.716;2023-04-09T05:49:36;5.80;99.90
21417;DHT22;10869;52.238;10.716;2023-04-09T05:52:05;5.70;99.90
21417;DHT22;10869;52.238;10.716;2023-04-09T05:54:34;5.80;99.90
21417;DHT22;10869;52.238;10.716;2023-04-09T05:57:00;5.80;99.90
21417;DHT22;10869;52.238;10.716;2023-04-09T05:59:29;5.80;99.90
21417;DHT22;10869;52.238;10.716;2023-04-09T06:01:55;5.80;99.90
21417;DHT22;10869;52.238;10.716;2023-04-09T06:04:21;5.90;99.90
21417;DHT22;10869;52.238;10.716;2023-04-09T06:10:10;5.90;99.90
21417;DHT22;10869;52.238;10.716;2023-04-09T06:12:36;6.00;99.90
21417;DHT22;10869;52.238;10.716;2023-04-09T06:15:05;6.00;99.90
21417;DHT22;10869;52.238;10.716;2023-04-09T06:17:31;6.00;99.90
21417;DHT22;10869;52.238;10.716;2023-04-09T06:19:57;6.10;99.90
21417;DHT22;10869;52.238;10.716;2023-04-09T06:22:23;6.10;99.90
21417;DHT22;10869;52.238;10.716;2023-04-09T06:24:49;6.00;99.90
21417;DHT22;10869;52.238;10.716;2023-04-09T06:27:14;6.00;99.90
21417;DHT22;10869;52.238;10.716;2023-04-09T06:29:40;6.00;99.90
21417;DHT22;10869;52.238;10.716;2023-04-09T06:32:06;6.00;99.90
21417;DHT22;10869;52.238;10.716;2023-04-09T06:37:57;6.10;99.90
21417;DHT22;10869;52.238;10.716;2023-04-09T06:43:53;6.20;99.90
21417;DHT22;10869;52.238;10.716;2023-04-09T06:49:42;6.20;99.90
21417;DHT22;10869;52.238;10.716;2023-04-09T06:55:29;6.20;99.90
21417;DHT22;10869;52.238;10.716;2023-04-09T06:57:55;6.20;99.90
21417;DHT22;10869;52.238;10.716;2023-04-09T07:00:21;6.20;99.90
21417;DHT22;10869;52.238;10.716;2023-04-09T07:06:09;6.30;99.90
21417;DHT22;10869;52.238;10.716;2023-04-09T07:12:00;6.30;99.90
21417;DHT22;10869;52.238;10.716;2023-04-09T07:14:26;6.30;99.90
21417;DHT22;10869;52.238;10.716;2023-04-09T07:16:51;6.40;99.90
21417;DHT22;10869;52.238;10.716;2023-04-09T07:19:17;6.40;99.90
21417;DHT22;10869;52.238;10.716;2023-04-09T07:21:43;6.50;99.90
21417;DHT22;10869;52.238;10.716;2023-04-09T07:24:08;6.50;99.90
21417;DHT22;10869;52.238;10.716;2023-04-09T07:26:34;6.50;99.90
21417;DHT22;10869;52.238;10.716;2023-04-09T07:29:00;6.60;99.90
21417;DHT22;10869;52.238;10.716;2023-04-09T07:31:28;6.70;99.90
21417;DHT22;10869;52.238;10.716;2023-04-09T07:33:55;6.70;99.90
21417;DHT22;10869;52.238;10.716;2023-04-09T07:36:21;6.80;99.90
21417;DHT22;10869;52.238;10.716;2023-04-09T07:39:00;6.90;99.90
21417;DHT22;10869;52.238;10.716;2023-04-09T07:48:03;7.00;99.90
21417;DHT22;10869;52.238;10.716;2023-04-09T07:50:51;6.90;99.90
21417;DHT22;10869;52.238;10.716;2023-04-09T07:56:39;6.90;99.90
21417;DHT22;10869;52.238;10.716;2023-04-09T07:59:05;7.00;99.90
21417;DHT22;10869;52.238;10.716;2023-04-09T08:01:31;7.00;99.90
21417;DHT22;10869;52.238;10.716;2023-04-09T08:07:20;7.00;99.90
21417;DHT22;10869;52.238;10.716;2023-04-09T08:09:46;7.10;99.90
21417;DHT22;10869;52.238;10.716;2023-04-09T08:12:12;7.20;99.90
21417;DHT22;10869;52.238;10.716;2023-04-09T08:14:38;7.30;99.90
21417;DHT22;10869;52.238;10.716;2023-04-09T08:17:04;7.30;99.90
21417;DHT22;10869;52.238;10.716;2023-04-09T08:22:51;7.70;99.90
21417;DHT22;10869;52.238;10.716;2023-04-09T08:25:17;7.70;99.90
21417;DHT22;10869;52.238;10.716;2023-04-09T08:27:43;7.70;99.90
21417;DHT22;10869;52.238;10.716;2023-04-09T08:33:30;7.50;99.90
21417;DHT22;10869;52.238;10.716;2023-04-09T08:35:56;7.50;99.90
21417;DHT22;10869;52.238;10.716;2023-04-09T08:38:22;7.50;99.90
21417;DHT22;10869;52.238;10.716;2023-04-09T08:44:09;7.40;99.90
21417;DHT22;10869;52.238;10.716;2023-04-09T08:49:58;7.90;99.90
21417;DHT22;10869;52.238;10.716;2023-04-09T08:55:45;8.30;99.90
21417;DHT22;10869;52.238;10.716;2023-04-09T08:58:11;8.70;99.90
21417;DHT22;10869;52.238;10.716;2023-04-09T09:00:37;8.70;99.90
21417;DHT22;10869;52.238;10.716;2023-04-09T09:03:08;9.00;99.90
21417;DHT22;10869;52.238;10.716;2023-04-09T09:05:43;9.30;99.90
21417;DHT22;10869;52.238;10.716;2023-04-09T09:08:13;9.50;99.90
21417;DHT22;10869;52.238;10.716;2023-04-09T09:10:46;9.70;99.90
21417;DHT22;10869;52.238;10.716;2023-04-09T09:13:23;10.30;99.90
21417;DHT22;10869;52.238;10.716;2023-04-09T09:15:51;10.80;99.90
21417;DHT22;10869;52.238;10.716;2023-04-09T09:18:39;10.80;99.90
21417;DHT22;10869;52.238;10.716;2023-04-09T09:21:13;11.10;99.90
21417;DHT22;10869;52.238;10.716;2023-04-09T09:23:39;11.40;99.90
21417;DHT22;10869;52.238;10.716;2023-04-09T09:26:19;11.30;99.90
21417;DHT22;10869;52.238;10.716;2023-04-09T09:32:12;11.40;99.90
21417;DHT22;10869;52.238;10.716;2023-04-09T09:34:38;11.50;99.90
21417;DHT22;10869;52.238;10.716;2023-04-09T09:37:27;11.20;99.90
21417;DHT22;10869;52.238;10.716;2023-04-09T09:39:54;11.00;99.90
21417;DHT22;10869;52.238;10.716;2023-04-09T09:42:20;10.90;99.90
21417;DHT22;10869;52.238;10.716;2023-04-09T09:44:46;11.00;99.90
21417;DHT22;10869;52.238;10.716;2023-04-09T09:47:13;11.10;99.90
21417;DHT22;10869;52.238;10.716;2023-04-09T09:49:39;11.30;99.90
21417;DHT22;10869;52.238;10.716;2023-04-09T09:52:09;11.50;99.90
21417;DHT22;10869;52.238;10.716;2023-04-09T09:54:47;11.40;99.90
21417;DHT22;10869;52.238;10.716;2023-04-09T09:57:15;11.80;99.90
21417;DHT22;10869;52.238;10.716;2023-04-09T10:00:00;12.00;99.90
21417;DHT22;10869;52.238;10.716;2023-04-09T10:02:56;12.00;99.90
21417;DHT22;10869;52.238;10.716;2023-04-09T10:05:26;11.60;99.90
21417;DHT22;10869;52.238;10.716;2023-04-09T10:07:56;11.50;99.90
21417;DHT22;10869;52.238;10.716;2023-04-09T10:10:23;11.50;99.90
21417;DHT22;10869;52.238;10.716;2023-04-09T10:12:51;11.30;99.90
21417;DHT22;10869;52.238;10.716;2023-04-09T10:15:18;11.10;99.90
21417;DHT22;10869;52.238;10.716;2023-04-09T10:17:43;11.20;99.90
21417;DHT22;10869;52.238;10.716;2023-04-09T10:20:21;11.30;99.90
21417;DHT22;10869;52.238;10.716;2023-04-09T10:22:49;11.30;99.90
21417;DHT22;10869;52.238;10.716;2023-04-09T10:25:18;11.30;99.90
21417;DHT22;10869;52.238;10.716;2023-04-09T10:27:43;11.40;99.90
21417;DHT22;10869;52.238;10.716;2023-04-09T10:30:30;11.80;99.90
21417;DHT22;10869;52.238;10.716;2023-04-09T10:39:10;13.40;99.90
21417;DHT22;10869;52.238;10.716;2023-04-09T10:57:30;14.60;99.90
21417;DHT22;10869;52.238;10.716;2023-04-09T11:47:24;14.80;98.40
21417;DHT22;10869;52.238;10.716;2023-04-09T13:01:12;16.30;96.50
21417;DHT22;10869;52.238;10.716;2023-04-09T13:03:44;16.50;96.00
21417;DHT22;10869;52.238;10.716;2023-04-09T13:06:15;16.60;95.80
21417;DHT22;10869;52.238;10.716;2023-04-09T13:08:41;16.50;94.50
21417;DHT22;10869;52.238;10.716;2023-04-09T13:11:07;16.50;95.40
21417;DHT22;10869;52.238;10.716;2023-04-09T13:13:33;16.30;95.90
21417;DHT22;10869;52.238;10.716;2023-04-09T13:15:59;16.00;95.40
21417;DHT22;10869;52.238;10.716;2023-04-09T13:18:26;16.10;95.90
21417;DHT22;10869;52.238;10.716;2023-04-09T13:20:54;16.30;95.20
21417;DHT22;10869;52.238;10.716;2023-04-09T13:23:23;16.10;96.00
21417;DHT22;10869;52.238;10.716;2023-04-09T13:25:49;16.40;95.80
21417;DHT22;10869;52.238;10.716;2023-04-09T13:28:15;16.60;95.70
21417;DHT22;10869;52.238;10.716;2023-04-09T13:30:41;16.80;95.50
21417;DHT22;10869;52.238;10.716;2023-04-09T13:33:07;16.90;95.10
21417;DHT22;10869;52.238;10.716;2023-04-09T13:35:33;17.10;94.70
21417;DHT22;10869;52.238;10.716;2023-04-09T13:37:59;17.20;94.10
21417;DHT22;10869;52.238;10.716;2023-04-09T13:40:25;17.00;93.90
21417;DHT22;10869;52.238;10.716;2023-04-09T13:42:51;16.90;94.30
21417;DHT22;10869;52.238;10.716;2023-04-09T13:45:17;16.70;95.40
21417;DHT22;10869;52.238;10.716;2023-04-09T13:47:44;16.50;95.20
21417;DHT22;10869;52.238;10.716;2023-04-09T13:50:10;16.30;95.50
21417;DHT22;10869;52.238;10.716;2023-04-09T13:52:38;16.50;95.50
21417;DHT22;10869;52.238;10.716;2023-04-09T13:55:04;16.60;95.70
21417;DHT22;10869;52.238;10.716;2023-04-09T13:57:30;16.80;95.40
21417;DHT22;10869;52.238;10.716;2023-04-09T13:59:56;16.70;95.00
21417;DHT22;10869;52.238;10.716;2023-04-09T14:02:21;16.80;94.90
21417;DHT22;10869;52.238;10.716;2023-04-09T14:04:48;16.80;94.90
21417;DHT22;10869;52.238;10.716;2023-04-09T15:11:57;15.70;93.90
21417;DHT22;10869;52.238;10.716;2023-04-09T15:14:26;15.50;94.30
21417;DHT22;10869;52.238;10.716;2023-04-09T15:16:58;15.40;95.30
21417;DHT22;10869;52.238;10.716;2023-04-09T15:24:36;15.30;95.60
21417;DHT22;10869;52.238;10.716;2023-04-09T15:32:17;15.20;96.20
21417;DHT22;10869;52.238;10.716;2023-04-09T15:45:17;14.70;96.10
21417;DHT22;10869;52.238;10.716;2023-04-09T15:47:43;14.60;96.20
21417;DHT22;10869;52.238;10.716;2023-04-09T15:50:11;14.60;95.80
21417;DHT22;10869;52.238;10.716;2023-04-09T15:52:40;14.50;96.10
21417;DHT22;10869;52.238;10.716;2023-04-09T15:55:06;14.40;97.10
21417;DHT22;10869;52.238;10.716;2023-04-09T15:57:31;14.40;97.60
21417;DHT22;10869;52.238;10.716;2023-04-09T15:59:57;14.50;97.90
21417;DHT22;10869;52.238;10.716;2023-04-09T16:02:23;14.40;97.90
21417;DHT22;10869;52.238;10.716;2023-04-09T16:04:49;14.40;97.70
21417;DHT22;10869;52.238;10.716;2023-04-09T16:07:15;14.30;97.70
21417;DHT22;10869;52.238;10.716;2023-04-09T16:09:41;14.30;97.80
21417;DHT22;10869;52.238;10.716;2023-04-09T16:12:07;14.30;98.00
21417;DHT22;10869;52.238;10.716;2023-04-09T16:14:33;14.30;98.10
21417;DHT22;10869;52.238;10.716;2023-04-09T16:20:21;14.20;98.40
21417;DHT22;10869;52.238;10.716;2023-04-09T16:22:53;14.10;98.40
21417;DHT22;10869;52.238;10.716;2023-04-09T16:48:36;13.20;99.40
21417;DHT22;10869;52.238;10.716;2023-04-09T16:51:06;13.20;99.40
21417;DHT22;10869;52.238;10.716;2023-04-09T16:53:32;13.10;99.80
21417;DHT22;10869;52.238;10.716;2023-04-09T16:55:58;13.10;99.90
21417;DHT22;10869;52.238;10.716;2023-04-09T16:58:24;13.00;99.80
21417;DHT22;10869;52.238;10.716;2023-04-09T17:00:49;13.00;99.90
21417;DHT22;10869;52.238;10.716;2023-04-09T17:03:15;12.90;99.90
21417;DHT22;10869;52.238;10.716;2023-04-09T17:05:41;12.90;99.90
21417;DHT22;10869;52.238;10.716;2023-04-09T17:08:13;12.80;99.90
21417;DHT22;10869;52.238;10.716;2023-04-09T17:10:39;12.70;99.90
21417;DHT22;10869;52.238;10.716;2023-04-09T17:13:05;12.60;99.70
21417;DHT22;10869;52.238;10.716;2023-04-09T17:15:30;12.60;99.90
21417;DHT22;10869;52.238;10.716;2023-04-09T17:17:56;12.50;99.90
21417;DHT22;10869;52.238;10.716;2023-04-09T17:20:23;12.40;99.90
21417;DHT22;10869;52.238;10.716;2023-04-09T17:22:49;12.40;99.90
21417;DHT22;10869;52.238;10.716;2023-04-09T17:27:50;12.20;99.90
21417;DHT22;10869;52.238;10.716;2023-04-09T17:33:40;11.90;99.90
21417;DHT22;10869;52.238;10.716;2023-04-09T17:39:28;11.70;99.90
21417;DHT22;10869;52.238;10.716;2023-04-09T17:41:54;11.60;99.90
21417;DHT22;10869;52.238;10.716;2023-04-09T17:47:47;11.30;99.90
21417;DHT22;10869;52.238;10.716;2023-04-09T17:50:12;11.10;99.90
21417;DHT22;10869;52.238;10.716;2023-04-09T17:56:00;10.90;99.90
21417;DHT22;10869;52.238;10.716;2023-04-09T18:01:50;10.50;99.90
21417;DHT22;10869;52.238;10.716;2023-04-09T18:04:17;10.30;99.90
21417;DHT22;10869;52.238;10.716;2023-04-09T18:06:42;10.10;99.90
21417;DHT22;10869;52.238;10.716;2023-04-09T18:09:08;10.00;99.90
21417;DHT22;10869;52.238;10.716;2023-04-09T18:11:34;9.80;99.90
21417;DHT22;10869;52.238;10.716;2023-04-09T18:13:59;9.70;99.90
21417;DHT22;10869;52.238;10.716;2023-04-09T18:16:25;9.60;99.90
21417;DHT22;10869;52.238;10.716;2023-04-09T18:18:51;9.50;99.90
21417;DHT22;10869;52.238;10.716;2023-04-09T18:21:17;9.40;99.90
21417;DHT22;10869;52.238;10.716;2023-04-09T18:23:42;9.30;99.90
21417;DHT22;10869;52.238;10.716;2023-04-09T18:26:08;9.20;99.90
21417;DHT22;10869;52.238;10.716;2023-04-09T18:28:34;9.10;99.90
21417;DHT22;10869;52.238;10.716;2023-04-09T18:34:22;9.00;99.90
21417;DHT22;10869;52.238;10.716;2023-04-09T18:36:48;8.90;99.90
21417;DHT22;10869;52.238;10.716;2023-04-09T18:39:14;8.80;99.90
21417;DHT22;10869;52.238;10.716;2023-04-09T18:45:02;8.50;99.90
21417;DHT22;10869;52.238;10.716;2023-04-09T18:47:28;8.40;99.90
21417;DHT22;10869;52.238;10.716;2023-04-09T18:49:54;8.30;99.90
21417;DHT22;10869;52.238;10.716;2023-04-09T18:52:20;8.30;99.90
21417;DHT22;10869;52.238;10.716;2023-04-09T18:54:45;8.30;99.90
21417;DHT22;10869;52.238;10.716;2023-04-09T18:57:12;8.30;99.90
21417;DHT22;10869;52.238;10.716;2023-04-09T18:59:38;8.40;99.90
21417;DHT22;10869;52.238;10.716;2023-04-09T19:02:04;8.50;99.90
21417;DHT22;10869;52.238;10.716;2023-04-09T19:04:31;8.50;99.90
21417;DHT22;10869;52.238;10.716;2023-04-09T19:07:01;8.50;99.90
21417;DHT22;10869;52.238;10.716;2023-04-09T19:09:27;8.40;99.90
21417;DHT22;10869;52.238;10.716;2023-04-09T19:11:52;8.40;99.90
21417;DHT22;10869;52.238;10.716;2023-04-09T19:14:18;8.30;99.90
21417;DHT22;10869;52.238;10.716;2023-04-09T19:16:44;8.20;99.90
21417;DHT22;10869;52.238;10.716;2023-04-09T19:19:10;8.20;99.90
21417;DHT22;10869;52.238;10.716;2023-04-09T19:21:36;8.10;99.90
21417;DHT22;10869;52.238;10.716;2023-04-09T19:24:02;8.10;99.90
21417;DHT22;10869;52.238;10.716;2023-04-09T19:26:28;8.00;99.90
21417;DHT22;10869;52.238;10.716;2023-04-09T19:28:54;8.00;99.90
21417;DHT22;10869;52.238;10.716;2023-04-09T19:31:20;8.00;99.90
21417;DHT22;10869;52.238;10.716;2023-04-09T19:33:45;8.10;99.90
21417;DHT22;10869;52.238;10.716;2023-04-09T19:36:11;8.10;99.90
21417;DHT22;10869;52.238;10.716;2023-04-09T19:38:38;8.20;99.90
21417;DHT22;10869;52.238;10.716;2023-04-09T19:41:04;8.30;99.90
21417;DHT22;10869;52.238;10.716;2023-04-09T19:43:30;8.30;99.90
21417;DHT22;10869;52.238;10.716;2023-04-09T19:46:04;8.50;99.90
21417;DHT22;10869;52.238;10.716;2023-04-09T19:48:31;8.60;99.90
21417;DHT22;10869;52.238;10.716;2023-04-09T19:50:56;8.70;99.90
21417;DHT22;10869;52.238;10.716;2023-04-09T19:56:44;8.80;99.90
21417;DHT22;10869;52.238;10.716;2023-04-09T19:59:10;8.90;99.90
21417;DHT22;10869;52.238;10.716;2023-04-09T20:01:36;8.90;99.90
21417;DHT22;10869;52.238;10.716;2023-04-09T20:07:23;9.00;99.90
21417;DHT22;10869;52.238;10.716;2023-04-09T20:09:49;9.10;99.90
21417;DHT22;10869;52.238;10.716;2023-04-09T20:12:15;9.10;99.90
21417;DHT22;10869;52.238;10.716;2023-04-09T20:14:41;9.10;99.90
21417;DHT22;10869;52.238;10.716;2023-04-09T20:17:07;9.10;99.90
21417;DHT22;10869;52.238;10.716;2023-04-09T20:19:34;9.20;99.90
21417;DHT22;10869;52.238;10.716;2023-04-09T20:22:00;9.20;99.90
21417;DHT22;10869;52.238;10.716;2023-04-09T20:27:48;9.30;99.90
21417;DHT22;10869;52.238;10.716;2023-04-09T20:30:14;9.30;99.90
21417;DHT22;10869;52.238;10.716;2023-04-09T20:32:41;9.20;99.90
21417;DHT22;10869;52.238;10.716;2023-04-09T20:35:07;9.30;99.90
21417;DHT22;10869;52.238;10.716;2023-04-09T20:37:36;9.30;99.90
21417;DHT22;10869;52.238;10.716;2023-04-09T20:40:02;9.30;99.90
21417;DHT22;10869;52.238;10.716;2023-04-09T20:42:28;9.30;99.90
21417;DHT22;10869;52.238;10.716;2023-04-09T20:44:58;9.30;99.90
21417;DHT22;10869;52.238;10.716;2023-04-09T20:47:29;9.30;99.90
21417;DHT22;10869;52.238;10.716;2023-04-09T20:49:55;9.30;99.90
21417;DHT22;10869;52.238;10.716;2023-04-09T20:52:24;9.30;99.90
21417;DHT22;10869;52.238;10.716;2023-04-09T20:54:54;9.20;99.90
21417;DHT22;10869;52.238;10.716;2023-04-09T20:57:23;9.30;99.90
21417;DHT22;10869;52.238;10.716;2023-04-09T21:03:11;9.30;99.90
21417;DHT22;10869;52.238;10.716;2023-04-09T21:05:37;9.30;99.90
21417;DHT22;10869;52.238;10.716;2023-04-09T21:08:03;9.20;99.90
21417;DHT22;10869;52.238;10.716;2023-04-09T21:10:29;9.20;99.90
21417;DHT22;10869;52.238;10.716;2023-04-09T21:12:55;9.20;99.90
21417;DHT22;10869;52.238;10.716;2023-04-09T21:18:43;9.20;99.90
21417;DHT22;10869;52.238;10.716;2023-04-09T21:21:09;9.20;99.90
21417;DHT22;10869;52.238;10.716;2023-04-09T21:23:35;9.10;99.90
21417;DHT22;10869;52.238;10.716;2023-04-09T21:26:02;9.10;99.90
21417;DHT22;10869;52.238;10.716;2023-04-09T21:28:28;9.10;99.90
21417;DHT22;10869;52.238;10.716;2023-04-09T21:30:55;9.20;99.90
21417;DHT22;10869;52.238;10.716;2023-04-09T21:33:22;9.20;99.90
21417;DHT22;10869;52.238;10.716;2023-04-09T21:35:51;9.20;99.90
21417;DHT22;10869;52.238;10.716;2023-04-09T21:38:18;9.20;99.90
21417;DHT22;10869;52.238;10.716;2023-04-09T21:40:45;9.10;99.90
21417;DHT22;10869;52.238;10.716;2023-04-09T21:43:11;9.10;99.90
21417;DHT22;10869;52.238;10.716;2023-04-09T21:45:37;9.10;99.90
21417;DHT22;10869;52.238;10.716;2023-04-09T21:48:05;9.00;99.90
21417;DHT22;10869;52.238;10.716;2023-04-09T21:50:31;9.10;99.90
21417;DHT22;10869;52.238;10.716;2023-04-09T21:52:57;9.10;99.90
21417;DHT22;10869;52.238;10.716;2023-04-09T21:55:23;9.10;99.90
21417;DHT22;10869;52.238;10.716;2023-04-09T21:57:49;9.10;99.90
21417;DHT22;10869;52.238;10.716;2023-04-09T22:00:17;9.00;99.90
21417;DHT22;10869;52.238;10.716;2023-04-09T22:02:43;9.00;99.90
21417;DHT22;10869;52.238;10.716;2023-04-09T22:05:09;9.00;99.90
21417;DHT22;10869;52.238;10.716;2023-04-09T22:07:38;9.00;99.90
21417;DHT22;10869;52.238;10.716;2023-04-09T22:10:07;9.00;99.90
21417;DHT22;10869;52.238;10.716;2023-04-09T22:12:33;9.00;99.90
21417;DHT22;10869;52.238;10.716;2023-04-09T22:15:01;9.00;99.90
21417;DHT22;10869;52.238;10.716;2023-04-09T22:17:27;9.00;99.90
21417;DHT22;10869;52.238;10.716;2023-04-09T22:19:53;9.00;99.90
21417;DHT22;10869;52.238;10.716;2023-04-09T22:22:18;9.00;99.90
21417;DHT22;10869;52.238;10.716;2023-04-09T22:24:47;9.00;99.90
21417;DHT22;10869;52.238;10.716;2023-04-09T22:27:12;9.10;99.90
21417;DHT22;10869;52.238;10.716;2023-04-09T22:29:38;9.00;99.90
21417;DHT22;10869;52.238;10.716;2023-04-09T22:32:04;9.00;99.90
21417;DHT22;10869;52.238;10.716;2023-04-09T22:34:30;8.90;99.90
21417;DHT22;10869;52.238;10.716;2023-04-09T22:36:56;8.80;99.90
21417;DHT22;10869;52.238;10.716;2023-04-09T22:39:22;8.80;99.90
21417;DHT22;10869;52.238;10.716;2023-04-09T22:41:47;8.80;99.90
21417;DHT22;10869;52.238;10.716;2023-04-09T22:44:13;8.80;99.90
21417;DHT22;10869;52.238;10.716;2023-04-09T22:46:39;8.80;99.90
21417;DHT22;10869;52.238;10.716;2023-04-09T22:49:05;8.70;99.90
21417;DHT22;10869;52.238;10.716;2023-04-09T22:51:31;8.70;99.90
21417;DHT22;10869;52.238;10.716;2023-04-09T22:53:59;8.60;99.90
21417;DHT22;10869;52.238;10.716;2023-04-09T22:56:24;8.60;99.90
21417;DHT22;10869;52.238;10.716;2023-04-09T22:58:50;8.60;99.90
